Time;durP1;ratioP1;P1;durP2;ratioP2;P2;SDS_P1;SDS_P2;PMS_P1;PMS_P2;Temp;Humidity;BMP_temperature;BMP_pressure;BME280_temperature;BME280_humidity;BME280_pressure;Samples;Min_cycle;Max_cycle;Signal;HPM_P1;HPM_P2
2022/01/03 00:00:49;;;;;;;11.88;1.25;;;9.40;99.90;;;;;;6181966;23;20343;-87
2022/01/03 00:03:16;;;;;;;11.10;1.40;;;9.40;99.90;;;;;;6155708;23;20016;-87
2022/01/03 00:05:42;;;;;;;14.38;2.72;;;9.40;99.90;;;;;;6157050;23;20024;-87
2022/01/03 00:08:08;;;;;;;15.10;1.50;;;9.40;99.90;;;;;;6157526;23;20012;-87
2022/01/03 00:10:34;;;;;;;15.82;1.83;;;9.40;99.90;;;;;;6155534;23;20012;-86
2022/01/03 00:13:01;;;;;;;10.25;1.55;;;9.40;99.90;;;;;;6156697;23;20021;-86
2022/01/03 00:15:27;;;;;;;10.90;1.17;;;9.40;99.90;;;;;;6158294;23;20402;-87
2022/01/03 00:17:53;;;;;;;13.32;2.53;;;9.40;99.90;;;;;;6158099;23;20067;-87
2022/01/03 00:20:20;;;;;;;15.35;1.60;;;9.40;99.90;;;;;;6181664;23;20491;-87
2022/01/03 00:23:07;;;;;;;17.48;2.00;;;9.30;99.90;;;;;;6182967;23;20013;-86
2022/01/03 00:25:41;;;;;;;10.40;1.48;;;9.40;99.90;;;;;;6155848;23;20016;-87
2022/01/03 00:28:22;;;;;;;13.57;1.75;;;9.40;99.90;;;;;;6181485;23;20048;-86
2022/01/03 00:30:53;;;;;;;13.82;1.50;;;9.40;99.90;;;;;;6183127;23;20017;-86
2022/01/03 00:33:20;;;;;;;11.15;1.25;;;9.40;99.90;;;;;;6157522;23;20096;-87
2022/01/03 00:35:54;;;;;;;13.88;2.45;;;9.50;99.90;;;;;;6182342;23;20072;-87
2022/01/03 00:38:21;;;;;;;10.75;1.50;;;9.60;99.90;;;;;;6156055;23;20049;-87
2022/01/03 00:40:49;;;;;;;18.40;2.00;;;9.60;99.90;;;;;;6155726;23;20013;-87
2022/01/03 00:43:16;;;;;;;16.00;1.42;;;9.60;99.90;;;;;;6182798;23;20013;-87
2022/01/03 00:45:42;;;;;;;9.85;1.08;;;9.60;99.90;;;;;;6156459;23;20020;-87
2022/01/03 00:48:09;;;;;;;13.85;1.52;;;9.60;99.90;;;;;;6157653;23;20009;-87
2022/01/03 00:50:35;;;;;;;13.98;1.55;;;9.70;99.90;;;;;;6181405;23;20016;-87
2022/01/03 00:53:01;;;;;;;14.43;1.60;;;9.70;99.90;;;;;;6182123;23;20025;-88
2022/01/03 00:55:27;;;;;;;17.05;1.85;;;9.70;99.90;;;;;;6155061;23;20063;-87
2022/01/03 00:58:02;;;;;;;16.90;1.75;;;9.70;99.90;;;;;;6181182;23;20017;-87
2022/01/03 01:00:31;;;;;;;13.75;1.58;;;9.60;99.90;;;;;;6180041;23;20013;-86
2022/01/03 01:03:17;;;;;;;12.60;1.63;;;9.50;99.90;;;;;;6180531;23;20441;-86
2022/01/03 01:05:45;;;;;;;13.88;1.55;;;9.50;99.90;;;;;;6179739;23;20083;-87
2022/01/03 01:08:12;;;;;;;12.45;1.88;;;9.50;99.90;;;;;;6180362;23;20040;-87
2022/01/03 01:10:41;;;;;;;18.05;2.13;;;9.50;99.90;;;;;;6156063;23;20087;-87
2022/01/03 01:13:12;;;;;;;10.95;1.60;;;9.50;99.90;;;;;;6179965;23;20013;-87
2022/01/03 01:15:38;;;;;;;12.13;1.48;;;9.50;99.90;;;;;;6156296;23;20009;-87
2022/01/03 01:18:04;;;;;;;14.65;1.73;;;9.50;99.90;;;;;;6179922;23;20470;-87
2022/01/03 01:20:32;;;;;;;17.48;1.67;;;9.50;99.90;;;;;;6180878;23;20384;-87
2022/01/03 01:22:58;;;;;;;17.90;1.40;;;9.50;99.90;;;;;;6180573;23;20068;-87
2022/01/03 01:28:15;;;;;;;10.85;1.48;;;9.60;99.90;;;;;;6151904;23;20352;-86
2022/01/03 01:30:42;;;;;;;13.02;1.60;;;9.50;99.90;;;;;;6156216;23;20044;-87
2022/01/03 01:33:14;;;;;;;11.63;1.92;;;9.50;99.90;;;;;;6179813;23;20510;-89
2022/01/03 01:35:46;;;;;;;10.80;1.50;;;9.50;99.90;;;;;;6179793;23;20123;-86
2022/01/03 01:38:18;;;;;;;10.55;1.30;;;9.60;99.90;;;;;;6178946;23;20024;-87
2022/01/03 01:40:47;;;;;;;12.13;1.67;;;9.50;99.90;;;;;;6179374;23;20092;-87
2022/01/03 01:43:14;;;;;;;11.32;1.45;;;9.60;99.90;;;;;;6179977;23;20012;-87
2022/01/03 01:45:42;;;;;;;13.48;2.25;;;9.60;99.90;;;;;;6181666;23;20465;-87
2022/01/03 01:48:11;;;;;;;10.93;1.35;;;9.60;99.90;;;;;;6180885;23;20076;-87
2022/01/03 01:50:40;;;;;;;14.68;1.67;;;9.60;99.90;;;;;;6155324;23;20032;-87
2022/01/03 01:53:06;;;;;;;14.02;2.10;;;9.60;99.90;;;;;;6155213;23;20085;-87
2022/01/03 01:55:32;;;;;;;14.02;1.65;;;9.50;99.90;;;;;;6180067;23;20013;-87
2022/01/03 01:58:14;;;;;;;14.70;2.40;;;9.40;99.90;;;;;;6179922;23;20013;-86
2022/01/03 02:00:44;;;;;;;11.20;1.40;;;9.40;99.90;;;;;;6155824;23;20020;-87
2022/01/03 02:03:24;;;;;;;14.77;1.80;;;9.30;99.90;;;;;;6154905;23;20017;-86
2022/01/03 02:06:09;;;;;;;8.75;1.67;;;9.30;99.90;;;;;;6156087;23;20635;-87
2022/01/03 02:08:59;;;;;;;16.15;1.30;;;9.30;99.90;;;;;;6180370;23;20427;-87
2022/01/03 02:11:49;;;;;;;16.45;2.60;;;9.30;99.90;;;;;;6149038;23;20013;-87
2022/01/03 02:14:16;;;;;;;16.38;1.83;;;9.30;99.90;;;;;;6181163;23;20447;-87
2022/01/03 02:16:43;;;;;;;11.90;1.90;;;9.30;99.90;;;;;;6155018;23;20505;-87
2022/01/03 02:19:09;;;;;;;14.48;2.05;;;9.30;99.90;;;;;;6156008;23;20079;-86
2022/01/03 02:21:35;;;;;;;15.25;2.50;;;9.20;99.90;;;;;;6155761;23;20048;-87
2022/01/03 02:24:02;;;;;;;15.77;1.48;;;9.30;99.90;;;;;;6179533;23;20110;-86
2022/01/03 02:26:29;;;;;;;11.57;1.67;;;9.20;99.90;;;;;;6155750;23;20013;-87
2022/01/03 02:28:54;;;;;;;13.98;2.20;;;9.20;99.90;;;;;;6154384;23;20017;-87
2022/01/03 02:31:21;;;;;;;12.27;1.58;;;9.20;99.90;;;;;;6155164;23;20044;-86
2022/01/03 02:33:47;;;;;;;11.45;1.67;;;9.20;99.90;;;;;;6180030;23;20048;-86
2022/01/03 02:36:13;;;;;;;15.48;1.92;;;9.20;99.90;;;;;;6179865;23;20016;-86
2022/01/03 02:38:39;;;;;;;13.23;1.58;;;9.20;99.90;;;;;;6156380;23;20024;-86
2022/01/03 02:41:05;;;;;;;14.50;2.33;;;9.20;99.90;;;;;;6153673;23;20328;-86
2022/01/03 02:43:30;;;;;;;16.67;1.80;;;9.20;99.90;;;;;;6180542;23;20076;-87
2022/01/03 02:45:56;;;;;;;11.07;1.40;;;9.20;99.90;;;;;;6180254;23;20013;-86
2022/01/03 02:48:22;;;;;;;14.88;1.80;;;9.20;99.90;;;;;;6155617;23;20403;-86
2022/01/03 02:50:48;;;;;;;12.23;1.58;;;9.20;99.90;;;;;;6157033;23;20017;-86
2022/01/03 02:53:15;;;;;;;16.17;2.17;;;9.20;99.90;;;;;;6182531;23;20072;-87
2022/01/03 02:55:41;;;;;;;15.68;2.45;;;9.20;99.90;;;;;;6156264;23;20079;-87
2022/01/03 02:58:07;;;;;;;14.93;1.88;;;9.20;99.90;;;;;;6182595;23;20505;-86
2022/01/03 03:00:36;;;;;;;20.52;2.70;;;9.10;99.90;;;;;;6182501;23;20010;-86
2022/01/03 03:03:03;;;;;;;12.18;1.77;;;9.10;99.90;;;;;;6181738;23;20020;-87
2022/01/03 03:05:29;;;;;;;17.08;3.03;;;9.10;99.90;;;;;;6180935;23;20044;-87
2022/01/03 03:07:55;;;;;;;17.20;1.77;;;9.10;99.90;;;;;;6180428;23;20016;-87
2022/01/03 03:10:23;;;;;;;13.10;2.03;;;9.10;99.90;;;;;;6154476;23;20451;-87
2022/01/03 03:12:49;;;;;;;13.07;1.70;;;9.00;99.90;;;;;;6156993;23;20017;-87
2022/01/03 03:15:16;;;;;;;19.30;2.72;;;9.00;99.90;;;;;;6180027;23;20020;-87
2022/01/03 03:17:42;;;;;;;12.65;1.90;;;9.00;99.90;;;;;;6180470;23;20014;-87
2022/01/03 03:20:17;;;;;;;20.73;1.77;;;9.00;99.90;;;;;;6181341;23;20230;-87
2022/01/03 03:22:43;;;;;;;16.73;2.10;;;9.10;99.90;;;;;;6181161;23;20091;-87
2022/01/03 03:25:15;;;;;;;12.88;1.58;;;9.10;99.90;;;;;;6180003;23;20044;-86
2022/01/03 03:27:44;;;;;;;12.73;1.77;;;9.00;99.90;;;;;;6179328;23;20013;-87
2022/01/03 03:30:12;;;;;;;14.50;1.80;;;9.10;99.90;;;;;;6156511;23;20082;-87
2022/01/03 03:32:39;;;;;;;14.23;1.88;;;9.10;99.90;;;;;;6181155;23;20017;-87
2022/01/03 03:35:05;;;;;;;13.55;1.63;;;9.10;99.90;;;;;;6180906;23;20069;-86
2022/01/03 03:37:31;;;;;;;17.27;3.03;;;9.10;99.90;;;;;;6180411;23;20081;-87
2022/01/03 03:39:57;;;;;;;15.13;2.58;;;9.20;99.90;;;;;;6178915;23;20105;-87
2022/01/03 03:42:22;;;;;;;17.60;2.22;;;9.20;99.90;;;;;;6155258;23;20017;-86
2022/01/03 03:44:48;;;;;;;14.25;1.90;;;9.30;99.90;;;;;;6181150;23;20009;-87
2022/01/03 03:47:14;;;;;;;11.88;2.45;;;9.30;99.90;;;;;;6179413;23;20024;-86
2022/01/03 03:49:39;;;;;;;16.85;2.20;;;9.30;99.90;;;;;;6155220;23;20464;-87
2022/01/03 03:52:05;;;;;;;17.70;1.83;;;9.30;99.90;;;;;;6155380;23;20020;-86
2022/01/03 03:54:33;;;;;;;17.23;3.03;;;9.40;99.90;;;;;;6179371;23;20021;-86
2022/01/03 03:56:59;;;;;;;17.70;2.20;;;9.40;99.90;;;;;;6154471;23;20017;-86
2022/01/03 03:59:26;;;;;;;18.08;2.03;;;9.40;99.90;;;;;;6180900;23;20063;-87
2022/01/03 04:01:53;;;;;;;14.07;2.17;;;9.40;99.90;;;;;;6157407;23;20040;-87
2022/01/03 04:04:19;;;;;;;20.63;2.35;;;9.40;99.90;;;;;;6182527;23;20042;-87
2022/01/03 04:06:45;;;;;;;17.52;1.80;;;9.30;99.90;;;;;;6182789;23;20091;-87
2022/01/03 04:09:11;;;;;;;20.88;2.88;;;9.40;99.90;;;;;;6156857;23;20020;-87
2022/01/03 04:11:36;;;;;;;15.90;2.17;;;9.40;99.90;;;;;;6155851;23;20346;-87
2022/01/03 04:14:02;;;;;;;19.75;2.60;;;9.30;99.90;;;;;;6182737;23;20439;-86
2022/01/03 04:16:28;;;;;;;20.23;2.38;;;9.30;99.90;;;;;;6157901;23;20067;-87
2022/01/03 04:18:53;;;;;;;16.55;2.40;;;9.30;99.90;;;;;;6181779;23;20063;-86
2022/01/03 04:21:19;;;;;;;16.35;2.58;;;9.30;99.90;;;;;;6182505;23;20013;-86
2022/01/03 04:23:45;;;;;;;18.73;2.67;;;9.30;99.90;;;;;;6157354;23;20159;-86
2022/01/03 04:26:11;;;;;;;15.93;2.58;;;9.30;99.90;;;;;;6181257;23;20048;-87
2022/01/03 04:28:38;;;;;;;22.38;3.10;;;9.30;99.90;;;;;;6181559;23;20016;-87
2022/01/03 04:31:04;;;;;;;12.88;2.08;;;9.30;99.90;;;;;;6157353;23;20021;-88
2022/01/03 04:33:29;;;;;;;14.65;1.88;;;9.30;99.90;;;;;;6182701;23;20048;-87
2022/01/03 04:35:55;;;;;;;17.15;2.47;;;9.30;99.90;;;;;;6182539;23;20075;-86
2022/01/03 04:38:21;;;;;;;24.95;3.17;;;9.20;99.90;;;;;;6181350;23;20515;-87
2022/01/03 04:40:47;;;;;;;23.08;4.70;;;9.30;99.90;;;;;;6155079;23;20373;-87
2022/01/03 04:43:12;;;;;;;22.30;2.35;;;9.30;99.90;;;;;;6182886;23;20292;-87
2022/01/03 04:45:38;;;;;;;19.00;2.40;;;9.30;99.90;;;;;;6182831;23;20531;-87
2022/01/03 04:48:04;;;;;;;15.18;2.53;;;9.30;99.90;;;;;;6156379;23;20045;-87
2022/01/03 04:50:30;;;;;;;22.90;2.70;;;9.30;99.90;;;;;;6181838;23;20032;-87
2022/01/03 04:52:55;;;;;;;16.30;1.92;;;9.30;99.90;;;;;;6182633;23;20021;-86
2022/01/03 04:55:21;;;;;;;15.95;2.33;;;9.30;99.90;;;;;;6180164;23;20067;-87
2022/01/03 04:57:46;;;;;;;17.65;1.98;;;9.30;99.90;;;;;;6157075;23;20481;-87
2022/01/03 05:00:12;;;;;;;15.45;2.08;;;9.30;99.90;;;;;;6157027;23;20013;-87
2022/01/03 05:02:38;;;;;;;10.30;2.38;;;9.20;99.90;;;;;;6182485;23;20035;-87
2022/01/03 05:05:07;;;;;;;17.35;2.80;;;9.20;99.90;;;;;;6157184;23;20379;-87
2022/01/03 05:07:32;;;;;;;27.92;2.80;;;9.20;99.90;;;;;;6181439;23;20055;-87
2022/01/03 05:09:58;;;;;;;19.60;3.00;;;9.30;99.90;;;;;;6180603;23;20017;-86
2022/01/03 05:12:24;;;;;;;22.38;2.30;;;9.30;99.90;;;;;;6158003;23;20012;-87
2022/01/03 05:14:49;;;;;;;17.25;2.17;;;9.20;99.90;;;;;;6155566;23;20344;-87
2022/01/03 05:17:15;;;;;;;14.70;2.10;;;9.20;99.90;;;;;;6181828;23;20095;-87
2022/01/03 05:19:40;;;;;;;13.88;1.95;;;9.20;99.90;;;;;;6182133;23;20024;-87
2022/01/03 05:22:06;;;;;;;20.63;3.13;;;9.10;99.90;;;;;;6181431;23;20088;-87
2022/01/03 05:24:34;;;;;;;15.15;1.88;;;9.10;99.90;;;;;;6180342;23;20089;-87
2022/01/03 05:27:01;;;;;;;14.35;2.55;;;9.10;99.90;;;;;;6181567;23;20011;-87
2022/01/03 05:29:28;;;;;;;21.67;3.38;;;9.10;99.90;;;;;;6157027;23;20013;-86
2022/01/03 05:31:54;;;;;;;17.60;2.15;;;9.10;99.90;;;;;;6156406;23;20063;-87
2022/01/03 05:34:20;;;;;;;20.63;2.67;;;9.00;99.90;;;;;;6180986;23;20013;-87
2022/01/03 05:36:46;;;;;;;17.50;2.13;;;9.00;99.90;;;;;;6182013;23;20016;-86
2022/01/03 05:39:15;;;;;;;26.48;3.83;;;8.90;99.90;;;;;;6179492;23;20097;-86
2022/01/03 05:41:41;;;;;;;17.88;2.78;;;8.90;99.90;;;;;;6181027;23;20076;-87
2022/01/03 05:44:07;;;;;;;18.42;2.65;;;8.80;99.90;;;;;;6180277;23;20013;-87
2022/01/03 05:46:33;;;;;;;18.17;3.00;;;8.80;99.90;;;;;;6180975;23;20060;-86
2022/01/03 05:48:59;;;;;;;22.10;2.38;;;8.80;99.90;;;;;;6181539;23;20049;-86
2022/01/03 05:51:24;;;;;;;13.90;2.03;;;8.70;99.90;;;;;;6181269;23;20017;-86
2022/01/03 05:53:50;;;;;;;12.93;1.88;;;8.70;99.90;;;;;;6178425;23;20017;-87
2022/01/03 05:56:16;;;;;;;17.42;2.40;;;8.60;99.90;;;;;;6180388;23;20016;-86
2022/01/03 05:58:43;;;;;;;17.48;2.25;;;8.70;99.90;;;;;;6155918;23;20013;-87
2022/01/03 06:01:08;;;;;;;24.23;2.63;;;8.70;99.90;;;;;;6156628;23;20017;-87
2022/01/03 06:03:38;;;;;;;29.23;4.15;;;8.60;99.90;;;;;;6156250;23;20021;-86
2022/01/03 06:08:36;;;;;;;28.10;3.53;;;8.70;99.90;;;;;;6181763;23;20036;-87
2022/01/03 06:11:02;;;;;;;23.23;2.42;;;8.70;99.90;;;;;;6179330;23;20096;-86
2022/01/03 06:13:28;;;;;;;15.95;2.70;;;8.70;99.90;;;;;;6181726;23;20067;-86
2022/01/03 06:15:54;;;;;;;23.48;2.55;;;8.70;99.90;;;;;;6180298;23;20069;-86
2022/01/03 06:18:20;;;;;;;16.73;2.30;;;8.70;99.90;;;;;;6181133;23;20399;-86
2022/01/03 06:20:47;;;;;;;23.50;2.55;;;8.70;99.90;;;;;;6180811;23;20017;-87
2022/01/03 06:23:14;;;;;;;23.45;3.83;;;8.60;99.90;;;;;;6156812;23;20013;-87
2022/01/03 06:25:40;;;;;;;22.23;3.88;;;8.70;99.90;;;;;;6180248;23;20354;-86
2022/01/03 06:28:07;;;;;;;22.45;3.80;;;8.70;99.90;;;;;;6156084;23;20020;-87
2022/01/03 06:30:41;;;;;;;20.23;3.22;;;8.70;99.90;;;;;;6156115;23;20028;-86
2022/01/03 06:33:08;;;;;;;22.98;2.92;;;8.60;99.90;;;;;;6180779;23;20458;-87
2022/01/03 06:35:35;;;;;;;19.42;3.42;;;8.60;99.90;;;;;;6179765;23;20017;-87
2022/01/03 06:38:02;;;;;;;26.98;3.33;;;8.70;99.90;;;;;;6178468;23;20017;-87
2022/01/03 06:40:28;;;;;;;18.25;2.70;;;8.80;99.90;;;;;;6154014;23;20013;-87
2022/01/03 06:42:54;;;;;;;25.80;3.22;;;8.80;99.90;;;;;;6155808;23;20061;-87
2022/01/03 06:45:20;;;;;;;26.60;3.17;;;8.80;99.90;;;;;;6180064;23;20524;-87
2022/01/03 06:47:46;;;;;;;21.90;3.00;;;8.80;99.90;;;;;;6156019;23;20021;-87
2022/01/03 06:50:12;;;;;;;22.50;3.75;;;8.80;99.90;;;;;;6179801;23;20024;-87
2022/01/03 06:52:38;;;;;;;23.40;2.50;;;8.80;99.90;;;;;;6179924;23;20053;-87
2022/01/03 06:55:05;;;;;;;21.45;3.10;;;8.90;99.90;;;;;;6178459;23;20017;-87
2022/01/03 06:57:32;;;;;;;23.40;3.25;;;8.90;99.90;;;;;;6154331;23;20027;-87
2022/01/03 06:59:58;;;;;;;25.17;3.38;;;8.90;99.90;;;;;;6179857;23;20036;-87
2022/01/03 07:02:23;;;;;;;28.52;3.00;;;8.90;99.90;;;;;;6154319;23;20021;-87
2022/01/03 07:04:49;;;;;;;16.02;2.55;;;8.80;99.90;;;;;;6180525;23;20028;-87
2022/01/03 07:07:15;;;;;;;19.13;2.85;;;8.80;99.90;;;;;;6155516;23;20498;-86
2022/01/03 07:09:41;;;;;;;24.70;3.92;;;8.80;99.90;;;;;;6179488;23;20017;-86
2022/01/03 07:12:07;;;;;;;25.48;3.10;;;8.80;99.90;;;;;;6181598;23;20017;-87
2022/01/03 07:19:49;;;;;;;26.20;3.28;;;8.80;99.90;;;;;;6183127;23;20021;-86
2022/01/03 07:22:15;;;;;;;22.48;3.83;;;8.80;99.90;;;;;;6182764;23;20017;-86
2022/01/03 07:24:41;;;;;;;21.23;3.15;;;8.80;99.90;;;;;;6181368;23;20013;-87
2022/01/03 07:27:09;;;;;;;20.52;4.15;;;8.80;99.90;;;;;;6181903;23;20051;-87
2022/01/03 07:29:36;;;;;;;18.17;3.00;;;8.90;99.90;;;;;;6182893;23;20087;-87
2022/01/03 07:32:02;;;;;;;30.52;3.83;;;9.00;99.90;;;;;;6183333;23;20042;-87
2022/01/03 07:34:28;;;;;;;28.83;3.70;;;9.00;99.90;;;;;;6156911;23;20016;-87
2022/01/03 07:36:54;;;;;;;24.13;3.17;;;9.10;99.90;;;;;;6183594;23;20012;-86
2022/01/03 07:39:20;;;;;;;22.85;3.15;;;9.10;99.90;;;;;;6158284;23;20017;-87
2022/01/03 07:41:45;;;;;;;29.38;4.13;;;9.20;99.90;;;;;;6181629;23;20099;-86
2022/01/03 07:44:11;;;;;;;21.98;3.88;;;9.30;99.90;;;;;;6183944;23;20051;-87
2022/01/03 07:46:37;;;;;;;22.98;3.53;;;9.30;99.90;;;;;;6183647;23;20443;-87
2022/01/03 07:49:03;;;;;;;21.63;3.50;;;9.40;99.90;;;;;;6181438;23;20044;-87
2022/01/03 07:51:29;;;;;;;21.13;2.80;;;9.40;99.90;;;;;;6156583;23;20021;-87
2022/01/03 07:53:55;;;;;;;23.10;3.55;;;9.40;99.90;;;;;;6179909;23;20027;-87
2022/01/03 07:56:21;;;;;;;18.42;3.00;;;9.40;99.90;;;;;;6155305;23;20020;-87
2022/01/03 07:58:47;;;;;;;18.38;2.97;;;9.40;99.90;;;;;;6181195;23;20021;-87
2022/01/03 08:01:13;;;;;;;31.27;4.10;;;9.40;99.90;;;;;;6154492;23;20056;-87
2022/01/03 08:03:41;;;;;;;29.90;4.18;;;9.40;99.90;;;;;;6155551;23;20025;-87
2022/01/03 08:06:09;;;;;;;25.15;3.47;;;9.40;99.90;;;;;;6156414;23;20100;-87
2022/01/03 08:08:35;;;;;;;21.05;3.65;;;9.40;99.90;;;;;;6153831;23;20296;-87
2022/01/03 08:11:04;;;;;;;24.52;4.10;;;9.40;99.90;;;;;;6179743;23;20474;-87
2022/01/03 08:13:30;;;;;;;22.23;3.42;;;9.40;99.90;;;;;;6154983;23;20518;-87
2022/01/03 08:15:56;;;;;;;16.45;2.50;;;9.40;99.90;;;;;;6179659;23;20051;-87
2022/01/03 08:18:22;;;;;;;21.10;2.75;;;9.40;99.90;;;;;;6177480;23;20359;-87
2022/01/03 08:20:49;;;;;;;24.95;3.45;;;9.40;99.90;;;;;;6178694;23;20011;-87
2022/01/03 08:23:15;;;;;;;17.80;2.70;;;9.30;99.90;;;;;;6153556;23;20024;-87
2022/01/03 08:25:41;;;;;;;18.85;3.35;;;9.30;99.90;;;;;;6153681;23;20009;-87
2022/01/03 08:28:08;;;;;;;19.20;3.03;;;9.40;99.90;;;;;;6179306;23;20056;-87
2022/01/03 08:30:41;;;;;;;20.33;2.53;;;9.40;99.90;;;;;;6179360;23;20024;-87
2022/01/03 08:33:06;;;;;;;26.75;3.33;;;9.50;99.90;;;;;;6155212;23;20017;-87
2022/01/03 08:35:32;;;;;;;23.30;3.88;;;9.50;99.90;;;;;;6178640;23;20021;-87
2022/01/03 08:38:04;;;;;;;20.73;2.90;;;9.50;99.90;;;;;;6180233;23;20099;-86
2022/01/03 08:40:31;;;;;;;20.08;3.08;;;9.50;99.90;;;;;;6177925;23;20013;-86
2022/01/03 08:42:57;;;;;;;19.90;3.35;;;9.50;99.90;;;;;;6178807;23;20013;-86
2022/01/03 08:45:22;;;;;;;21.23;3.60;;;9.60;99.90;;;;;;6153995;23;20056;-86
2022/01/03 08:47:48;;;;;;;25.00;2.83;;;9.60;99.90;;;;;;6180184;23;20036;-86
2022/01/03 08:50:15;;;;;;;21.60;3.28;;;9.50;99.90;;;;;;6180011;23;20344;-86
2022/01/03 08:52:42;;;;;;;29.77;3.22;;;9.60;99.90;;;;;;6180800;23;20072;-86
2022/01/03 08:55:07;;;;;;;21.38;2.90;;;9.60;99.90;;;;;;6153393;23;20020;-87
2022/01/03 08:57:33;;;;;;;22.08;3.33;;;9.60;99.90;;;;;;6153299;23;20013;-87
2022/01/03 08:59:59;;;;;;;20.73;3.28;;;9.70;99.90;;;;;;6180028;23;20305;-87
2022/01/03 09:02:24;;;;;;;24.58;3.53;;;9.70;99.90;;;;;;6177996;23;20343;-87
2022/01/03 09:04:50;;;;;;;26.05;3.30;;;9.70;99.90;;;;;;6178876;23;20039;-87
2022/01/03 09:07:16;;;;;;;19.15;3.03;;;9.80;99.90;;;;;;6154403;23;20053;-87
2022/01/03 09:09:49;;;;;;;25.40;3.60;;;9.80;99.90;;;;;;6154127;23;20013;-87
2022/01/03 09:12:22;;;;;;;27.05;3.65;;;9.80;99.90;;;;;;6155536;23;20350;-87
2022/01/03 09:14:47;;;;;;;22.33;3.30;;;9.90;99.90;;;;;;6155132;23;20016;-87
2022/01/03 09:17:13;;;;;;;18.35;2.63;;;9.90;99.90;;;;;;6154231;23;20296;-87
2022/01/03 09:19:39;;;;;;;25.35;3.70;;;9.90;99.90;;;;;;6154276;23;20095;-87
2022/01/03 09:22:17;;;;;;;24.77;3.13;;;9.90;99.90;;;;;;6177618;23;20096;-87
2022/01/03 09:28:49;;;;;;;16.70;2.17;;;10.00;99.90;;;;;;6153119;23;20078;-87
2022/01/03 09:30:13;;;;;;;23.70;3.17;;;10.00;99.90;;;;;;6178820;23;20025;-87
2022/01/03 09:32:39;;;;;;;20.42;2.72;;;10.00;99.90;;;;;;6152539;23;20017;-86
2022/01/03 09:35:12;;;;;;;23.65;2.85;;;10.00;99.90;;;;;;6179124;23;20438;-87
2022/01/03 09:37:39;;;;;;;21.02;2.80;;;10.00;99.90;;;;;;6179042;23;20454;-86
2022/01/03 09:40:07;;;;;;;19.67;3.10;;;10.00;99.90;;;;;;6177816;23;20095;-86
2022/01/03 09:42:34;;;;;;;18.98;2.80;;;10.00;99.90;;;;;;6177267;23;20020;-87
2022/01/03 09:45:04;;;;;;;19.73;3.45;;;10.00;99.90;;;;;;6179387;23;20039;-86
2022/01/03 09:47:32;;;;;;;21.35;2.25;;;10.10;99.90;;;;;;6179549;23;20021;-87
2022/01/03 09:49:59;;;;;;;20.50;2.83;;;10.10;99.90;;;;;;6153654;23;20383;-86
2022/01/03 09:52:27;;;;;;;20.35;2.63;;;10.10;99.90;;;;;;6153883;23;20017;-86
2022/01/03 09:54:54;;;;;;;17.67;2.58;;;10.10;99.90;;;;;;6178221;23;20325;-86
2022/01/03 09:57:22;;;;;;;19.10;2.95;;;10.10;99.90;;;;;;6180507;23;20466;-86
2022/01/03 10:00:07;;;;;;;21.38;3.97;;;10.10;99.90;;;;;;6177097;23;20012;-86
2022/01/03 10:02:36;;;;;;;15.40;2.45;;;10.10;99.90;;;;;;6153954;23;20017;-86
2022/01/03 10:05:32;;;;;;;21.95;2.95;;;10.10;99.90;;;;;;6152773;23;20021;-86
2022/01/03 10:07:58;;;;;;;25.90;2.65;;;10.10;99.90;;;;;;6149440;23;20095;-86
2022/01/03 10:10:27;;;;;;;20.42;2.85;;;10.10;99.90;;;;;;6177546;23;20020;-86
2022/01/03 10:12:53;;;;;;;19.23;3.83;;;10.10;99.90;;;;;;6176725;23;20095;-86
2022/01/03 10:15:18;;;;;;;21.58;2.88;;;10.20;99.90;;;;;;6152518;23;20059;-86
2022/01/03 10:18:06;;;;;;;19.25;3.00;;;10.20;99.90;;;;;;6153940;23;20013;-86
2022/01/03 10:20:39;;;;;;;16.67;2.58;;;10.30;99.90;;;;;;6176485;23;20012;-86
2022/01/03 10:23:23;;;;;;;17.23;2.88;;;10.30;99.90;;;;;;6177742;23;20017;-86
2022/01/03 10:25:50;;;;;;;23.02;3.72;;;10.30;99.90;;;;;;6152437;23;20009;-86
2022/01/03 10:28:37;;;;;;;15.38;2.58;;;10.40;99.90;;;;;;6180553;23;20045;-86
2022/01/03 10:31:17;;;;;;;21.42;3.00;;;10.30;99.90;;;;;;6177979;23;20017;-86
2022/01/03 10:34:04;;;;;;;17.50;3.05;;;10.30;99.90;;;;;;6151628;23;20554;-86
2022/01/03 10:36:31;;;;;;;30.77;2.65;;;10.40;99.90;;;;;;6178584;23;20096;-86
2022/01/03 10:38:59;;;;;;;12.80;2.45;;;10.40;99.90;;;;;;6176874;23;20383;-86
2022/01/03 10:41:25;;;;;;;19.65;2.75;;;10.40;99.90;;;;;;6152479;23;20064;-86
2022/01/03 10:43:54;;;;;;;17.33;2.88;;;10.40;99.90;;;;;;6177812;23;20016;-86
2022/01/03 10:46:23;;;;;;;24.08;3.50;;;10.40;99.90;;;;;;6176040;23;20344;-86
2022/01/03 10:48:55;;;;;;;17.80;2.45;;;10.40;99.90;;;;;;6150132;23;20120;-86
2022/01/03 10:51:27;;;;;;;19.20;2.95;;;10.50;99.90;;;;;;6173035;23;20428;-86
2022/01/03 10:53:55;;;;;;;17.23;2.80;;;10.60;99.90;;;;;;6176478;23;20091;-86
2022/01/03 10:56:42;;;;;;;22.63;3.35;;;10.70;99.90;;;;;;6179981;23;20013;-86
2022/01/03 10:59:23;;;;;;;25.45;3.70;;;10.90;99.90;;;;;;6179119;23;20008;-85
2022/01/03 11:02:11;;;;;;;22.40;2.88;;;11.00;99.90;;;;;;6178772;23;20013;-86
2022/01/03 11:10:43;;;;;;;19.50;3.05;;;11.10;99.90;;;;;;6177173;23;20028;-86
2022/01/03 11:13:12;;;;;;;21.15;3.33;;;11.30;99.90;;;;;;6179508;23;20049;-86
2022/01/03 11:15:52;;;;;;;19.80;2.92;;;11.40;99.90;;;;;;6155042;23;20021;-86
2022/01/03 11:18:29;;;;;;;20.02;2.47;;;11.40;99.90;;;;;;6179414;23;20023;-86
2022/01/03 11:21:04;;;;;;;16.67;2.42;;;11.50;99.90;;;;;;6178086;23;20041;-86
2022/01/03 11:23:30;;;;;;;19.80;2.60;;;11.50;99.90;;;;;;6180803;23;20015;-86
2022/01/03 11:25:56;;;;;;;18.65;3.13;;;11.70;99.90;;;;;;6179605;23;20096;-86
2022/01/03 11:28:26;;;;;;;24.35;3.30;;;11.80;99.90;;;;;;6155551;23;20017;-86
2022/01/03 11:30:53;;;;;;;17.05;2.85;;;11.90;99.90;;;;;;6155954;23;20446;-86
2022/01/03 11:33:19;;;;;;;21.08;2.75;;;11.80;99.90;;;;;;6155071;23;20265;-86
2022/01/03 11:35:47;;;;;;;19.70;2.80;;;11.60;99.90;;;;;;6179109;23;20028;-86
2022/01/03 11:38:18;;;;;;;21.38;2.75;;;11.60;99.90;;;;;;6179628;23;20151;-85
2022/01/03 11:40:44;;;;;;;19.38;3.00;;;11.50;99.90;;;;;;6178436;23;20350;-86
2022/01/03 11:43:10;;;;;;;25.10;4.40;;;11.50;99.90;;;;;;6152563;23;20510;-86
2022/01/03 11:45:36;;;;;;;22.55;3.22;;;11.70;99.90;;;;;;6178502;23;20024;-85
2022/01/03 11:48:02;;;;;;;14.90;2.83;;;11.90;99.90;;;;;;6178989;23;20438;-85
2022/01/03 11:50:28;;;;;;;20.10;2.78;;;12.10;99.90;;;;;;6176944;23;20447;-86
2022/01/03 11:52:55;;;;;;;18.73;2.80;;;12.30;99.90;;;;;;6178544;23;20091;-86
2022/01/03 11:55:23;;;;;;;15.30;2.35;;;12.30;99.90;;;;;;6176895;23;20012;-86
2022/01/03 12:06:02;;;;;;;20.85;2.70;;;11.90;99.90;;;;;;6178742;23;20016;-86
2022/01/03 12:08:30;;;;;;;17.10;2.97;;;12.10;99.90;;;;;;6154996;23;20012;-86
2022/01/03 12:11:00;;;;;;;22.95;3.13;;;12.00;99.90;;;;;;6177328;23;20408;-86
2022/01/03 12:13:52;;;;;;;21.23;2.47;;;12.10;99.90;;;;;;6180751;23;20452;-86
2022/01/03 12:16:35;;;;;;;20.55;3.47;;;12.20;99.90;;;;;;6179830;23;20012;-85
2022/01/03 12:19:01;;;;;;;17.80;2.70;;;12.40;99.90;;;;;;6177175;23;20017;-86
2022/01/03 12:21:53;;;;;;;19.80;2.63;;;12.40;99.90;;;;;;6153617;23;20019;-86
2022/01/03 12:24:27;;;;;;;18.10;3.05;;;12.50;99.90;;;;;;6178057;23;20347;-86
2022/01/03 12:27:14;;;;;;;18.65;2.38;;;12.70;99.90;;;;;;6179000;23;20017;-86
2022/01/03 12:29:58;;;;;;;17.45;3.13;;;12.70;99.90;;;;;;6181030;23;20023;-86
2022/01/03 12:32:32;;;;;;;13.77;2.33;;;12.50;99.90;;;;;;6153336;23;20024;-86
2022/01/03 12:35:19;;;;;;;17.70;2.97;;;12.40;99.90;;;;;;6178920;23;20024;-85
2022/01/03 12:37:54;;;;;;;18.77;2.97;;;12.10;99.90;;;;;;6155496;23;20020;-86
2022/01/03 12:40:30;;;;;;;18.55;3.05;;;12.00;99.90;;;;;;6177802;23;20020;-85
2022/01/03 12:43:05;;;;;;;16.60;2.78;;;12.00;99.90;;;;;;6178925;23;20114;-86
2022/01/03 12:45:32;;;;;;;21.75;2.90;;;12.30;99.90;;;;;;6153699;23;20013;-86
2022/01/03 12:50:41;;;;;;;17.20;3.00;;;12.40;99.90;;;;;;6179598;23;20021;-85
2022/01/03 12:53:08;;;;;;;16.75;2.78;;;12.20;99.90;;;;;;6155337;23;20124;-86
2022/01/03 12:55:37;;;;;;;19.50;2.80;;;12.20;99.90;;;;;;6178530;23;20013;-86
2022/01/03 12:58:03;;;;;;;18.00;3.08;;;12.20;99.90;;;;;;6155238;23;20017;-85
2022/01/03 13:00:46;;;;;;;21.30;2.90;;;12.30;99.90;;;;;;6178971;23;20406;-86
2022/01/03 13:03:24;;;;;;;14.77;2.63;;;12.30;99.90;;;;;;6179253;23;20095;-86
2022/01/03 13:06:10;;;;;;;18.90;3.13;;;12.00;99.90;;;;;;6179916;23;20049;-86
2022/01/03 13:08:48;;;;;;;20.10;3.28;;;11.90;99.90;;;;;;6153638;23;20013;-86
2022/01/03 13:11:22;;;;;;;16.00;2.72;;;11.70;99.90;;;;;;6180267;23;20028;-86
2022/01/03 13:13:50;;;;;;;17.95;2.78;;;11.60;99.90;;;;;;6178574;23;20103;-87
2022/01/03 13:16:24;;;;;;;20.27;3.00;;;11.50;99.90;;;;;;6154743;23;20020;-84
2022/01/03 13:19:00;;;;;;;19.40;3.10;;;11.40;99.90;;;;;;6178968;23;20083;-84
2022/01/03 13:21:29;;;;;;;20.15;2.83;;;11.40;99.90;;;;;;6177078;23;20064;-84